createdAt,value
2019-04-06T00:00:52.400Z,7.20
2019-04-06T00:03:56.275Z,7.50
2019-04-06T00:07:00.118Z,7.80
2019-04-06T00:10:05.073Z,8.20
2019-04-06T00:13:08.975Z,8.10
2019-04-06T00:16:12.834Z,8.10
2019-04-06T00:19:16.695Z,8.10
2019-04-06T00:22:20.555Z,7.90
2019-04-06T00:25:24.394Z,8.10
2019-04-06T00:28:28.252Z,8.20
2019-04-06T00:31:42.610Z,8.30
2019-04-06T00:34:46.498Z,8.40
2019-04-06T00:37:50.302Z,8.50
2019-04-06T00:40:54.206Z,8.70
2019-04-06T00:43:58.037Z,8.70
2019-04-06T00:47:01.927Z,8.70
2019-04-06T00:50:08.915Z,8.60
2019-04-06T00:53:12.795Z,8.60
2019-04-06T00:56:16.694Z,8.70
2019-04-06T00:59:20.502Z,8.90
2019-04-06T01:02:24.387Z,8.80
2019-04-06T01:05:28.238Z,8.90
2019-04-06T01:08:32.079Z,9.00
2019-04-06T01:11:35.915Z,8.90
2019-04-06T01:14:39.925Z,9.00
2019-04-06T01:17:43.803Z,8.90
2019-04-06T01:20:47.736Z,8.80
2019-04-06T01:23:51.572Z,9.00
2019-04-06T01:26:55.467Z,9.00
2019-04-06T01:29:59.295Z,8.90
2019-04-06T01:33:03.144Z,8.80
2019-04-06T01:36:06.983Z,9.10
2019-04-06T01:39:10.875Z,9.10
2019-04-06T01:42:14.767Z,9.00
2019-04-06T01:45:18.608Z,8.80
2019-04-06T01:48:22.496Z,8.90
2019-04-06T01:51:26.307Z,8.80
2019-04-06T01:54:30.158Z,8.70
2019-04-06T01:57:33.967Z,8.70
2019-04-06T02:00:39.546Z,8.70
2019-04-06T02:03:43.368Z,8.90
2019-04-06T02:06:47.257Z,8.80
2019-04-06T02:09:51.152Z,8.70
2019-04-06T02:12:54.954Z,8.90
2019-04-06T02:15:58.921Z,9.10
2019-04-06T02:19:02.769Z,9.10
2019-04-06T02:22:06.635Z,9.00
2019-04-06T02:25:10.478Z,8.90
2019-04-06T02:28:14.364Z,8.90
2019-04-06T02:31:19.744Z,8.60
2019-04-06T02:34:27.788Z,8.60
2019-04-06T02:37:33.324Z,8.50
2019-04-06T02:40:55.365Z,8.50
2019-04-06T02:43:59.555Z,8.50
2019-04-06T02:47:03.470Z,8.50
2019-04-06T02:50:07.921Z,8.40
2019-04-06T02:53:11.816Z,8.50
2019-04-06T02:56:16.156Z,8.60
2019-04-06T02:59:20.040Z,8.50
2019-04-06T03:02:23.878Z,8.50
2019-04-06T03:05:28.320Z,8.70
2019-04-06T03:08:32.661Z,8.70
2019-04-06T03:11:36.517Z,8.70
2019-04-06T03:14:40.532Z,8.80
2019-04-06T03:17:45.629Z,8.80
2019-04-06T03:20:49.512Z,8.60
2019-04-06T03:23:53.424Z,8.60
2019-04-06T03:27:02.227Z,8.60
2019-04-06T03:30:02.868Z,8.50
2019-04-06T03:33:06.785Z,8.40
2019-04-06T03:36:10.680Z,8.40
2019-04-06T03:39:14.643Z,8.50
2019-04-06T03:42:18.473Z,8.40
2019-04-06T03:45:22.364Z,8.50
2019-04-06T03:48:26.198Z,8.40
2019-04-06T03:51:30.061Z,8.40
2019-04-06T03:54:33.859Z,8.30
2019-04-06T03:57:37.768Z,8.30
2019-04-06T04:00:41.576Z,8.40
2019-04-06T04:03:45.477Z,8.40
2019-04-06T04:06:49.329Z,8.40
2019-04-06T04:09:53.206Z,8.40
2019-04-06T04:12:57.049Z,8.60
2019-04-06T04:16:00.972Z,8.30
2019-04-06T04:19:04.802Z,8.20
2019-04-06T04:22:08.692Z,8.40
2019-04-06T04:25:12.516Z,8.30
2019-04-06T04:28:16.391Z,8.10
2019-04-06T04:31:20.208Z,8.10
2019-04-06T04:34:24.199Z,8.10
2019-04-06T04:37:28.045Z,8.10
2019-04-06T04:40:32.113Z,8.10
2019-04-06T04:43:36.307Z,8.10
2019-04-06T04:46:40.148Z,8.20
2019-04-06T04:49:44.055Z,8.00
2019-04-06T04:52:47.961Z,8.10
2019-04-06T04:55:51.854Z,8.10
2019-04-06T04:58:56.664Z,8.10
2019-04-06T05:02:00.506Z,8.00
2019-04-06T05:05:06.190Z,8.10
2019-04-06T05:08:10.047Z,8.10
2019-04-06T05:11:13.949Z,8.20
2019-04-06T05:14:37.111Z,8.30
2019-04-06T05:17:40.993Z,8.30
2019-04-06T05:20:44.814Z,8.10
2019-04-06T05:23:48.715Z,8.20
2019-04-06T05:26:52.595Z,8.20
2019-04-06T05:29:56.485Z,8.20
2019-04-06T05:33:00.445Z,8.00
2019-04-06T05:36:04.775Z,7.90
2019-04-06T05:39:08.710Z,8.00
2019-04-06T05:42:12.597Z,8.00
2019-04-06T05:45:16.494Z,8.10
2019-04-06T05:48:20.321Z,8.10
2019-04-06T05:51:24.196Z,8.10
2019-04-06T05:54:28.004Z,8.30
2019-04-06T05:57:32.724Z,8.40
2019-04-06T06:00:39.967Z,8.50
2019-04-06T06:03:42.317Z,8.50
2019-04-06T06:06:46.607Z,8.70
2019-04-06T06:09:50.507Z,8.80
2019-04-06T06:12:54.388Z,8.80
2019-04-06T06:15:58.493Z,8.70
2019-04-06T06:19:02.383Z,8.70
2019-04-06T06:22:06.227Z,8.80
2019-04-06T06:25:10.300Z,8.90
2019-04-06T06:28:15.462Z,9.00
2019-04-06T06:31:19.740Z,9.10
2019-04-06T06:34:23.607Z,9.20
2019-04-06T06:37:27.469Z,9.30
2019-04-06T06:40:31.324Z,9.30
2019-04-06T06:43:35.218Z,9.30
2019-04-06T06:46:39.067Z,9.30
2019-04-06T06:49:43.166Z,9.10
2019-04-06T06:52:46.984Z,9.30
2019-04-06T06:55:53.208Z,9.20
2019-04-06T06:58:56.318Z,9.30
2019-04-06T07:02:00.184Z,9.40
2019-04-06T07:05:04.756Z,9.60
2019-04-06T07:08:08.669Z,9.60
2019-04-06T07:11:12.469Z,9.50
2019-04-06T07:14:16.415Z,9.60
2019-04-06T07:17:20.294Z,9.80
2019-04-06T07:20:24.292Z,10.00
2019-04-06T07:23:28.218Z,10.50
2019-04-06T07:26:32.226Z,10.80
2019-04-06T07:29:36.056Z,10.50
2019-04-06T07:32:39.917Z,10.50
2019-04-06T07:35:43.819Z,10.10
2019-04-06T07:38:47.695Z,10.00
2019-04-06T07:41:51.597Z,10.00
2019-04-06T07:44:55.494Z,9.80
2019-04-06T07:47:59.380Z,9.90
2019-04-06T07:51:03.252Z,10.00
2019-04-06T07:54:07.164Z,10.00
2019-04-06T07:57:11.039Z,9.70
2019-04-06T08:00:15.331Z,9.50
2019-04-06T08:03:19.156Z,9.60
2019-04-06T08:06:23.014Z,9.70
2019-04-06T08:09:26.827Z,9.80
2019-04-06T08:12:30.704Z,9.90
2019-04-06T08:15:34.541Z,10.10
2019-04-06T08:18:38.432Z,10.20
2019-04-06T08:21:42.350Z,10.10
2019-04-06T08:24:46.195Z,10.30
2019-04-06T08:27:50.085Z,10.40
2019-04-06T08:30:53.925Z,10.50
2019-04-06T08:33:57.824Z,10.50
2019-04-06T08:37:01.717Z,10.60
2019-04-06T08:40:08.954Z,10.60
2019-04-06T08:43:13.117Z,10.70
2019-04-06T08:46:16.946Z,10.80
2019-04-06T08:49:20.815Z,11.10
2019-04-06T08:52:24.687Z,11.40
2019-04-06T08:55:28.517Z,11.30
2019-04-06T08:58:32.470Z,11.30
2019-04-06T09:01:36.536Z,11.60
2019-04-06T09:04:40.474Z,11.60
2019-04-06T09:07:44.449Z,11.70
2019-04-06T09:10:48.316Z,11.30
2019-04-06T09:13:52.189Z,11.40
2019-04-06T09:16:56.068Z,11.60
2019-04-06T09:19:59.895Z,11.80
2019-04-06T09:23:03.814Z,11.90
2019-04-06T09:26:07.631Z,12.00
2019-04-06T09:32:16.782Z,12.20
2019-04-06T09:38:24.296Z,12.20
2019-04-06T09:41:28.154Z,12.10
2019-04-06T09:44:36.107Z,11.80
2019-04-06T09:47:44.235Z,11.80
2019-04-06T09:50:49.694Z,11.80
2019-04-06T10:00:36.777Z,12.00
2019-04-06T10:03:58.255Z,12.00
2019-04-06T10:07:19.905Z,11.90
2019-04-06T10:10:31.185Z,11.70
2019-04-06T10:13:42.335Z,11.90
2019-04-06T10:16:50.736Z,11.90
2019-04-06T10:20:05.205Z,12.00
2019-04-06T10:29:28.968Z,12.40
2019-04-06T10:32:46.495Z,12.50
2019-04-06T10:42:19.222Z,12.60
2019-04-06T10:45:27.284Z,12.80
2019-04-06T10:55:02.899Z,12.40
2019-04-06T11:04:33.298Z,12.50
2019-04-06T11:07:50.584Z,12.20
2019-04-06T11:11:08.826Z,12.20
2019-04-06T11:20:52.527Z,12.10
2019-04-06T11:24:14.378Z,12.00
2019-04-06T11:27:19.825Z,11.90
2019-04-06T11:30:25.243Z,12.00
2019-04-06T11:39:58.703Z,12.20
2019-04-06T11:43:04.128Z,12.30
2019-04-06T11:46:21.508Z,12.20
2019-04-06T11:49:42.135Z,12.40
2019-04-06T11:52:56.865Z,12.40
2019-04-06T11:56:05.049Z,12.40
2019-04-06T11:59:28.743Z,12.30
2019-04-06T12:02:34.157Z,12.20
2019-04-06T12:05:48.555Z,11.80
2019-04-06T12:08:53.973Z,11.70
2019-04-06T12:12:11.484Z,11.70
2019-04-06T12:15:19.915Z,11.60
2019-04-06T12:18:25.325Z,11.70
2019-04-06T12:21:36.845Z,12.10
2019-04-06T12:24:58.328Z,12.30
2019-04-06T12:28:15.496Z,12.50
2019-04-06T12:31:36.895Z,12.20
2019-04-06T12:35:00.208Z,12.00
2019-04-06T12:38:24.518Z,11.90
2019-04-06T12:41:45.135Z,11.70
2019-04-06T12:44:56.477Z,11.60
2019-04-06T12:48:07.789Z,11.60
2019-04-06T12:51:29.544Z,11.60
2019-04-06T12:54:51.224Z,11.50
2019-04-06T12:57:56.709Z,11.30
2019-04-06T13:01:17.223Z,11.20
2019-04-06T13:04:22.676Z,11.40
2019-04-06T13:10:39.496Z,11.70
2019-04-06T13:13:44.960Z,11.90
2019-04-06T13:16:50.553Z,11.80
2019-04-06T13:20:01.739Z,11.70
2019-04-06T13:23:12.900Z,11.80
2019-04-06T13:26:18.643Z,11.80
2019-04-06T13:29:24.084Z,11.70
2019-04-06T13:32:38.642Z,11.60
2019-04-06T13:35:56.574Z,11.60
2019-04-06T13:39:18.271Z,11.70
2019-04-06T13:42:29.343Z,11.80
2019-04-06T13:45:50.676Z,11.80
2019-04-06T13:48:56.104Z,11.80
2019-04-06T13:52:01.563Z,11.70
2019-04-06T13:55:26.553Z,11.50
2019-04-06T13:58:35.543Z,11.30
2019-04-06T14:05:04.140Z,11.20
2019-04-06T14:08:09.630Z,11.30
2019-04-06T14:11:21.015Z,11.30
2019-04-06T14:14:35.738Z,11.20
2019-04-06T14:17:56.223Z,11.20
2019-04-06T14:24:27.471Z,11.20
2019-04-06T14:27:35.724Z,11.10
2019-04-06T14:30:57.743Z,11.00
2019-04-06T14:34:05.992Z,10.90
2019-04-06T14:37:29.695Z,11.00
2019-04-06T14:40:51.723Z,11.00
2019-04-06T14:44:02.776Z,10.90
2019-04-06T14:47:08.225Z,11.00
2019-04-06T14:50:30.017Z,11.00
2019-04-06T14:53:38.462Z,10.80
2019-04-06T14:56:43.910Z,10.70
2019-04-06T14:59:49.381Z,10.70
2019-04-06T15:03:01.027Z,10.70
2019-04-06T15:06:06.403Z,10.60
2019-04-06T15:09:12.082Z,10.60
2019-04-06T15:12:17.516Z,10.50
2019-04-06T15:15:39.055Z,10.40
2019-04-06T15:18:47.455Z,10.30
2019-04-06T15:22:09.199Z,10.30
2019-04-06T15:25:23.557Z,10.30
2019-04-06T15:28:45.285Z,10.50
2019-04-06T15:32:02.680Z,10.50
2019-04-06T15:35:14.646Z,10.70
2019-04-06T15:38:29.209Z,10.70
2019-04-06T15:44:57.551Z,10.80
2019-04-06T15:48:12.385Z,10.80
2019-04-06T15:51:27.068Z,10.80
2019-04-06T15:54:38.825Z,10.70
2019-04-06T15:57:50.124Z,10.80
2019-04-06T16:01:11.702Z,10.70
2019-04-06T16:04:33.609Z,10.70
2019-04-06T16:07:42.283Z,10.70
2019-04-06T16:11:02.649Z,10.70
2019-04-06T16:14:24.848Z,10.70
2019-04-06T16:17:42.439Z,10.70
2019-04-06T16:20:47.846Z,10.80
2019-04-06T16:24:02.256Z,10.80
2019-04-06T16:27:00.385Z,10.80
2019-04-06T16:30:08.341Z,10.70
2019-04-06T16:33:29.784Z,10.60
2019-04-06T16:36:35.257Z,10.70
2019-04-06T16:39:43.560Z,10.60
2019-04-06T16:42:49.222Z,10.70
2019-04-06T16:46:11.325Z,10.70
2019-04-06T16:49:33.288Z,10.70
2019-04-06T16:52:47.744Z,10.70
2019-04-06T16:55:59.135Z,10.80
2019-04-06T16:59:19.604Z,10.90
2019-04-06T17:06:03.079Z,10.80
2019-04-06T17:09:15.671Z,10.70
2019-04-06T17:12:29.964Z,10.50
2019-04-06T17:15:38.182Z,10.50
2019-04-06T17:18:52.525Z,10.50
2019-04-06T17:22:06.866Z,10.60
2019-04-06T17:25:15.369Z,10.60
2019-04-06T17:28:29.317Z,10.50
2019-04-06T17:31:37.609Z,10.50
2019-04-06T17:34:59.185Z,10.40
2019-04-06T17:38:07.792Z,10.50
2019-04-06T17:41:13.576Z,10.50
2019-04-06T17:44:35.463Z,10.50
2019-04-06T17:47:57.198Z,10.60
2019-04-06T17:51:05.428Z,10.60
2019-04-06T17:54:22.841Z,10.60
2019-04-06T17:57:28.342Z,10.60
2019-04-06T18:00:33.787Z,10.60
2019-04-06T18:03:54.104Z,10.60
2019-04-06T18:07:17.423Z,10.60
2019-04-06T18:10:25.383Z,10.50
2019-04-06T18:13:30.803Z,10.50
2019-04-06T18:16:35.220Z,10.50
2019-04-06T18:19:39.335Z,10.50
2019-04-06T18:22:43.753Z,10.40
2019-04-06T18:25:47.538Z,10.40
2019-04-06T18:28:52.938Z,10.30
2019-04-06T18:31:58.325Z,10.10
2019-04-06T18:35:02.313Z,10.00
2019-04-06T18:38:07.857Z,9.60
2019-04-06T18:41:11.826Z,9.50
2019-04-06T18:44:15.639Z,9.40
2019-04-06T18:47:19.541Z,9.20
2019-04-06T18:50:33.685Z,9.10
2019-04-06T18:53:28.914Z,9.10
2019-04-06T18:56:32.741Z,9.10
2019-04-06T18:59:36.913Z,9.10
2019-04-06T19:02:41.400Z,9.00
2019-04-06T19:05:45.434Z,9.00
2019-04-06T19:08:49.259Z,9.10
2019-04-06T19:11:56.398Z,9.10
2019-04-06T19:14:58.675Z,9.10
2019-04-06T19:18:02.694Z,9.20
2019-04-06T19:21:07.323Z,9.10
2019-04-06T19:24:12.186Z,9.00
2019-04-06T19:27:16.339Z,8.90
2019-04-06T19:30:20.849Z,8.90
2019-04-06T19:33:25.931Z,8.90
2019-04-06T19:36:30.365Z,8.90
2019-04-06T19:39:34.502Z,8.80
2019-04-06T19:42:38.956Z,8.90
2019-04-06T19:45:43.290Z,8.90
2019-04-06T19:48:47.163Z,8.80
2019-04-06T19:51:50.983Z,8.80
2019-04-06T19:54:54.812Z,8.60
2019-04-06T19:57:58.653Z,8.60
2019-04-06T20:01:03.036Z,8.50
2019-04-06T20:04:06.975Z,8.50
2019-04-06T20:07:11.571Z,8.30
2019-04-06T20:10:16.143Z,8.10
2019-04-06T20:13:20.472Z,7.90
2019-04-06T20:16:24.314Z,7.70
2019-04-06T20:19:28.526Z,7.50
2019-04-06T20:22:33.013Z,7.30
2019-04-06T20:25:37.341Z,7.10
2019-04-06T20:28:41.624Z,6.80
2019-04-06T20:31:46.161Z,6.50
2019-04-06T20:34:50.476Z,6.40
2019-04-06T20:37:54.410Z,6.20
2019-04-06T20:40:58.335Z,6.10
2019-04-06T20:44:02.167Z,5.90
2019-04-06T20:47:05.999Z,5.80
2019-04-06T20:50:10.524Z,5.70
2019-04-06T20:53:14.596Z,5.70
2019-04-06T20:56:18.506Z,5.60
2019-04-06T20:59:22.883Z,5.60
2019-04-06T21:02:26.898Z,5.60
2019-04-06T21:05:30.700Z,5.50
2019-04-06T21:08:34.568Z,5.30
2019-04-06T21:11:39.252Z,5.30
2019-04-06T21:14:43.707Z,5.20
2019-04-06T21:17:47.577Z,5.10
2019-04-06T21:20:51.448Z,5.20
2019-04-06T21:23:55.298Z,5.20
2019-04-06T21:26:59.678Z,5.00
2019-04-06T21:30:05.009Z,5.00
2019-04-06T21:33:08.943Z,5.00
2019-04-06T21:36:12.802Z,5.00
2019-04-06T21:39:16.655Z,5.00
2019-04-06T21:42:20.934Z,5.10
2019-04-06T21:45:25.109Z,4.90
2019-04-06T21:48:28.996Z,4.90
2019-04-06T21:51:32.830Z,4.80
2019-04-06T21:54:37.095Z,4.80
2019-04-06T21:57:41.024Z,4.70
2019-04-06T22:00:52.548Z,4.60
2019-04-06T22:03:56.404Z,4.60
2019-04-06T22:07:00.867Z,4.60
2019-04-06T22:10:06.073Z,4.60
2019-04-06T22:13:10.371Z,4.60
2019-04-06T22:16:14.253Z,4.60
2019-04-06T22:19:18.087Z,4.80
2019-04-06T22:22:22.291Z,4.80
2019-04-06T22:25:26.198Z,4.80
2019-04-06T22:28:30.094Z,4.80
2019-04-06T22:31:33.926Z,4.70
2019-04-06T22:34:40.205Z,4.70
2019-04-06T22:37:43.235Z,4.70
2019-04-06T22:40:47.560Z,4.70
2019-04-06T22:43:51.476Z,4.70
2019-04-06T22:46:55.367Z,4.80
2019-04-06T22:49:59.253Z,4.70
2019-04-06T22:53:03.797Z,4.70
2019-04-06T22:56:07.664Z,4.70
2019-04-06T22:59:11.503Z,4.70
2019-04-06T23:02:15.721Z,4.60
2019-04-06T23:05:21.134Z,4.50
2019-04-06T23:08:24.977Z,4.50
2019-04-06T23:11:28.823Z,4.50
2019-04-06T23:14:32.859Z,4.50
2019-04-06T23:17:36.816Z,4.40
2019-04-06T23:20:40.715Z,4.30
2019-04-06T23:23:45.176Z,4.30
2019-04-06T23:26:49.828Z,4.30
2019-04-06T23:29:53.683Z,4.20
2019-04-06T23:32:58.214Z,4.10
2019-04-06T23:36:02.171Z,4.10
2019-04-06T23:39:08.036Z,4.10
2019-04-06T23:42:11.938Z,4.10
2019-04-06T23:45:15.814Z,4.10
2019-04-06T23:48:19.835Z,4.00
2019-04-06T23:51:24.343Z,4.10
2019-04-06T23:54:28.156Z,4.10
2019-04-06T23:57:32.028Z,4.20
